Harkers Island, NC (28531)

6:17 AM EDT on April 26, 2015 (GMT -0400)
Ward Creek dock | | Change Station
CLOSE
Current Station
Personal Weather Station
Location: Beaufort, NC
Elevation: 23 ft
Nearby Weather Stations

Elev 23 ft 34.77 °N, 76.57 °W | Updated 3 minutes ago

Overcast
Overcast
56.5 °F
Feels Like 56.5 °F
N
8.3
Wind Variable Wind from NE

Today
High -- | Low -- °F
--% Chance of Precip.
Yesterday
High -- | Low -- °F
Precip. -- in
6:21 AM 7:47 PM
First Quarter, 54% visible
Pressure 29.55 in
Visibility 10.0 miles
Clouds Overcast 400 ft
Dew Point 56 °F
Humidity 99%
Rainfall 0.00 in
Snow Depth Not available.
UV 0 out of 12
Pollen 7.00 out of 12
Air Quality Not available.
Flu Activity Sporadic
METAR KMRH 260958Z AUTO 04007KT 10SM OVC004 13/13 A2954 RMK AO2 SLP005 T01330133 TSNO

More Conditions Fewer Conditions

Pressure 29.55 in
Visibility 10.0 miles
Clouds Overcast 400 ft
Dew Point 56 °F
Humidity 99%
Rainfall 0.00 in
Snow Depth Not available.
UV 0 out of 12
Pollen 7.00 out of 12
Air Quality Not available.
Flu Activity Sporadic
METAR KMRH 260958Z AUTO 04007KT 10SM OVC004 13/13 A2954 RMK AO2 SLP005 T01330133 TSNO

More Conditions Fewer Conditions

The full scope of the disaster following a powerful 7.8-magnitude earthquake in Nepal may not come into view for days, but global charities are already sending emergency aid. Click to see how you can help.

10-Day Weather Forecast

Almanac

Astronomy

Apr. 26, 2015 Rise Set
Actual Time
Civil Twilight
Nautical Twilight
Astronomical Twilight
Moon
Length of Visible Light
Length of Day
Tomorrow will be .
, % of the Moon is Illuminated

Today's Extremes

State Highs State Lows

Community

WunderPhotos

Upload Photos

1,816,960 photos uploaded!

WunderBlogs® & News

Nearby

Air Quality

  Air Quality AQ Index Pollutant
Not available.

Snow Depth

Station Depth Elevation

Earthquake Activity

City Distance Mag. Time & Date
Minimum magnitude displayed is 2.5.

Coastal Water Temperatures

Place Temperature

Stations

Nearby Weather Stations

Station Location Temp. Windchill Dew Point Humidity Wind Precip. Elev Updated Type